Weather at Bolingbrook's Clow International Airport

Public forecast

Using degrees Fahrenheit for public forecast. Weather courtesy of forecast.io.

Closest aviation weather report (METAR) to Bolingbrook's Clow International Airport

Closest report is Lewis University Airport, 5.5 nm (10.2 km) SSE. Retrieved 2021/06/23 11:35 UTC (34 minutes ago):

KLOT 231135Z AUTO 22011G15KT 10SM SCT022 BKN100 17/13 A3004 RMK AO2 T01690125

Closest aviation forecast (TAF) to Bolingbrook's Clow International Airport

Closest forecast is Dupage Airport, 13.8 nm (25.5 km) NNW. Retrieved 2021/06/23 12:36 UTC (0 seconds ago):

TAF KDPA 231135Z 2312/2412 20012G20KT P6SM VCSH SCT025 BKN050 TEMPO 2314/2318 6SM -SHRA FM231800 19018G30KT P6SM SCT060 FM240100 18012G18KT P6SM SCT070 WS015/22045KT